Nearby METAR Reports

 

KMTN - Baltimore/Martin, Maryland, USA
Distance from station: SSE 8mi, 13km
Updated: Tue, 22-Jul-2014 4:51am EDT
Clear
Clear
 Wind from calm
Wind: Calm
Temperature: 73°F , 23°C
Dew Point: 72°F , 22°C
Humidity: 94%
Barometer: 30.18 inHg , 1022 hPa
Clouds: Clear
Visibility: 10 miles , 16 km
2014/07/22 08:51 KMTN 220851Z AUTO 00000KT 10SM CLR 23/22 A3018 RMK AO2
KDMH - Baltimore/Dwntwn, Maryland, USA
Distance from station: SW 12mi, 19km
Updated: Tue, 22-Jul-2014 4:54am EDT

 
Temperature: 73°F , 23°C
Dew Point: 70°F , 21°C
Humidity: 89%
Barometer: 30.17 inHg , 1021.7 hPa
2014/07/22 08:54 KDMH 220854Z AUTO 23/21 A3017 RMK AO1 SLP214 T02280206 55002
 
KBWI - Balto/Wash Intl, Maryland, USA
Distance from station: SSW 20mi, 33km
Updated: Tue, 22-Jul-2014 4:54am EDT
Partly cloudy
Partly cloudy
 Wind from calm
Wind: Calm
Temperature: 70°F , 21°C
Dew Point: 68°F , 20°C
Humidity: 94%
Barometer: 30.16 inHg , 1021.3 hPa
Clouds: Partly cloudy
Visibility: 10 miles , 16 km
Cloud details: Few Clouds 700 ft
Partly cloudy 25000 ft
2014/07/22 08:54 KBWI 220854Z 00000KT 10SM FEW007 SCT250 21/20 A3016 RMK AO2 SLP210 T02110200 55004
KDMW - Carroll Cnty, Maryland, USA
Distance from station: WNW 30mi, 48km
Updated: Tue, 22-Jul-2014 4:50am EDT
Overcast
Overcast
 Wind from calm
Wind: Calm
Temperature: 70°F , 21°C
Dew Point: 70°F , 21°C
Humidity: 100%
Barometer: 30.19 inHg , 1022.4 hPa
Clouds: Overcast
Visibility: 10 miles , 16 km
Cloud details: Overcast 600 ft
2014/07/22 08:50 KDMW 220850Z AUTO 00000KT 10SM OVC006 21/21 A3019 RMK AO2
 
KNAK - Annapolis/Naval, Maryland, USA
Distance from station: S 30mi, 48km
Updated: Tue, 22-Jul-2014 4:54am EDT
Clear
Clear
 Wind from calm
Wind: Calm
Temperature: 72°F , 22°C
Dew Point: 68°F , 20°C
Humidity: 88%
Barometer: 30.15 inHg , 1021 hPa
Clouds: Clear
Visibility: 10 miles , 16 km
2014/07/22 08:54 KNAK 220854Z AUTO 00000KT 10SM CLR 22/20 A3015 RMK AO2 SLP213 T02220200 55004
KW29 - Stevensville, Maryland, USA
Distance from station: SSE 31mi, 50km
Updated: Tue, 22-Jul-2014 4:52am EDT

 Wind from calm
Wind: Calm
Temperature: 72°F , 22°C
Dew Point: 70°F , 21°C
Humidity: 94%
Barometer: 30.16 inHg , 1021.3 hPa
Visibility: 10 miles , 16 km
2014/07/22 08:52 KW29 220852Z AUTO 00000KT 10SM 22/21 A3016 RMK AO1
 
KCGS - College Park, Maryland, USA
Distance from station: SW 38mi, 61km
Updated: Tue, 22-Jul-2014 4:50am EDT
Partly cloudy
Partly cloudy
 Wind from calm
Wind: Calm
Temperature: 70°F , 21°C
Dew Point: 70°F , 21°C
Humidity: 100%
Barometer: 30.16 inHg , 1021.3 hPa
Clouds: Partly cloudy
Visibility: 10 miles , 16 km
Cloud details: Partly cloudy 2500 ft
2014/07/22 08:50 KCGS 220850Z AUTO 00000KT 10SM SCT025 21/21 A3016 RMK AO1
KGAI - Gaithersburg, Maryland, USA
Distance from station: WSW 40mi, 65km
Updated: Tue, 22-Jul-2014 4:55am EDT
Mostly cloudy
Mostly cloudy
 Wind from calm
Wind: Calm
Temperature: 70°F , 21°C
Dew Point: 66°F , 19°C
Humidity: 88%
Barometer: 30.20 inHg , 1022.7 hPa
Clouds: Mostly cloudy
Visibility: 10 miles , 16 km
Cloud details: Few Clouds 400 ft
Mostly cloudy 1400 ft
2014/07/22 08:55 KGAI 220855Z AUTO 00000KT 10SM FEW004 BKN014 21/19 A3020 RMK AO1 57007
 
KTHV - York, Pennsylvania, USA
Distance from station: NNW 40mi, 65km
Updated: Tue, 22-Jul-2014 5:06am EDT
Overcast
Overcast
 Wind from calm
Wind: Calm
Temperature: 66°F , 19°C
Dew Point: 64°F , 18°C
Humidity: 94%
Barometer: 30.17 inHg , 1021.7 hPa
Clouds: Overcast
Visibility: 10 miles , 16 km
Cloud details: Mostly cloudy 1500 ft
Overcast 5000 ft
2014/07/22 09:06 KTHV 220906Z AUTO 00000KT 10SM BKN015 OVC050 19/18 A3017 RMK AO2 T01890178
KFDK - Frederick, Maryland, USA
Distance from station: W 47mi, 75km
Updated: Tue, 22-Jul-2014 4:50am EDT
Overcast
Overcast
 Wind from calm
Wind: Calm
Temperature: 70°F , 21°C
Dew Point: 70°F , 21°C
Humidity: 100%
Barometer: 30.19 inHg , 1022.4 hPa
Clouds: Overcast
Visibility: 10 miles , 16 km
Cloud details: Overcast 1100 ft
2014/07/22 08:50 KFDK 220850Z AUTO 00000KT 10SM OVC011 21/21 A3019 RMK AO2
 
KESN - Easton/Newnam, Maryland, USA
Distance from station: SSE 48mi, 78km
Updated: Tue, 22-Jul-2014 5:03am EDT
Clear
Clear
 Wind from calm
Wind: Calm
Temperature: 70°F , 21°C
Dew Point: 70°F , 21°C
Humidity: 100%
Barometer: 30.20 inHg , 1022.7 hPa
Clouds: Clear
Visibility: 7 miles , 11 km
2014/07/22 09:03 KESN 220903Z AUTO 00000KT 7SM CLR 21/21 A3020 RMK AO2 T02120212
KDCA - Washington/Natl, Washington D.c., USA
Distance from station: SW 49mi, 79km
Updated: Tue, 22-Jul-2014 5:05am EDT
Mostly cloudy
Mostly cloudy
 Wind from S
Wind: S 6 mph , 9 km/h
Temperature: 75°F , 24°C
Dew Point: 70°F , 21°C
Humidity: 83%
Barometer: 30.17 inHg , 1021.7 hPa
Clouds: Mostly cloudy
Visibility: 10 miles , 16 km
Cloud details: Few Clouds 800 ft
Mostly cloudy 2700 ft
Mostly cloudy 15000 ft
Mostly cloudy 25000 ft
2014/07/22 09:05 KDCA 220905Z 18005KT 10SM FEW008 BKN027 BKN150 BKN250 24/21 A3017 RMK AO2
 
KLNS - Lancaster, Pennsylvania, USA
Distance from station: N 49mi, 79km
Updated: Tue, 22-Jul-2014 4:53am EDT
Mist, Overcast
Mist, Overcast
 Wind from E
Wind: E 3 mph , 6 km/h
Temperature: 70°F , 21°C
Dew Point: 66°F , 19°C
Humidity: 88%
Barometer: 30.17 inHg , 1021.7 hPa
Summary: Mist
Clouds: Overcast
Visibility: 6 miles , 10 km
Cloud details: Overcast 5500 ft
2014/07/22 08:53 KLNS 220853Z AUTO 08003KT 6SM BR OVC055 21/19 A3017 RMK AO2 SLP214 T02060189 55002
KILG - Wilmington, Delaware, USA
Distance from station: ENE 50mi, 81km
Updated: Tue, 22-Jul-2014 5:10am EDT
Partly cloudy
Partly cloudy
 Wind from calm
Wind: Calm
Temperature: 70°F , 21°C
Dew Point: 66°F , 19°C
Humidity: 88%
Barometer: 30.18 inHg , 1022 hPa
Clouds: Partly cloudy
Visibility: 10 miles , 16 km
Cloud details: Partly cloudy 1300 ft
2014/07/22 09:10 KILG 220910Z AUTO 00000KT 10SM SCT013 21/19 A3018 RMK AO2 T02110189 TSNO